MiSS Niz — WDF2697 — position and weather

sailwx.info

Track history (hours):
 
Tides and Currents Weather Stations Pressure Air Temp Water Temp Dewpoint Dewpoint Depression Visibility Wind Speed Wind Dir Waves Ship Positions

MiSS Niz

Owner: Marquette Transportation Company Offshore LLC, Jefferson, LA. More information available from US FCC via Universal Licensing System and Coast Guard Vessel Documentation Center.

Last reported at 2018-Feb-22 02:58 UTC. Time now 2018-Feb-23 16:34 UTC.
Position N 29°34' W 090°33'.

Length 22 m; draft 2.5 m.

Type: Tug. MMSI: 367430850.

Date/timePositionNaut miles runAvg speedWind from/ knotsBaromVisibWave heightAir tempDewpointWater temp
2018-Feb-22 02:58N 29°34' W 090°33'3 7.4
2018-Feb-22 02:31N 29°35' W 090°37'4 8.2
2018-Feb-22 02:00N 29°37' W 090°41'3 5.3
2018-Feb-22 01:31N 29°34' W 090°43'4 7.8
2018-Feb-22 01:00N 29°30' W 090°43'8 0.9
2018-Feb-21 16:36N 29°23' W 090°44'1 3.2
2018-Feb-21 16:24N 29°23' W 090°44'1 3.6
2018-Feb-21 16:00N 29°25' W 090°44'2 4.5
2018-Feb-21 15:30N 29°27' W 090°43'2 4.8
2018-Feb-21 15:01N 29°29' W 090°43'2 4.8
2018-Feb-21 14:31N 29°32' W 090°42'1 1.2
2018-Feb-21 14:00N 29°32' W 090°42'0 0.1
2018-Feb-21 13:31N 29°32' W 090°42'0 0.0
2018-Feb-21 13:01N 29°32' W 090°42'0 0.0
2018-Feb-21 12:31N 29°32' W 090°42'0 0.0
2018-Feb-21 12:01N 29°32' W 090°42'0 0.0
2018-Feb-21 11:31N 29°32' W 090°42'0 0.0
2018-Feb-21 11:01N 29°32' W 090°42'0 0.0
2018-Feb-21 10:31N 29°32' W 090°42'0 0.0
2018-Feb-21 10:01N 29°32' W 090°42'0 0.0
2018-Feb-21 09:31N 29°32' W 090°42'0 0.0
2018-Feb-21 09:01N 29°32' W 090°42'0 0.0
2018-Feb-21 08:31N 29°32' W 090°42'0 0.0
2018-Feb-21 08:01N 29°32' W 090°42'0 0.0
2018-Feb-21 07:30N 29°32' W 090°42'0 0.0
2018-Feb-21 07:00N 29°32' W 090°42'0 0.0
2018-Feb-21 06:31N 29°32' W 090°42'0 0.0
2018-Feb-21 06:00N 29°32' W 090°42'0 0.0
2018-Feb-21 05:31N 29°32' W 090°42'0 0.0
2018-Feb-21 05:01N 29°32' W 090°42'0 0.0
2018-Feb-21 04:31N 29°32' W 090°42'0 0.0
2018-Feb-21 04:01N 29°32' W 090°42'0 0.0
2018-Feb-21 03:31N 29°32' W 090°42'1 2.4
2018-Feb-21 03:01N 29°34' W 090°43'1 2.8
2018-Feb-21 02:30N 29°35' W 090°43'0 0.0
2018-Feb-21 02:01N 29°35' W 090°43'0 0.0
2018-Feb-21 01:31N 29°35' W 090°43'0 0.0
2018-Feb-21 01:01N 29°35' W 090°43'0 0.0
2018-Feb-21 00:31N 29°35' W 090°43'0 0.0
2018-Feb-21 00:01N 29°35' W 090°43'0 0.0
2018-Feb-20 23:30N 29°35' W 090°43'0 0.0
2018-Feb-20 23:00N 29°35' W 090°43'0 0.0
2018-Feb-20 22:30N 29°35' W 090°43'0 0.0
2018-Feb-20 22:01N 29°35' W 090°43'0 0.0
2018-Feb-20 21:31N 29°35' W 090°43'0 0.0
2018-Feb-20 21:01N 29°35' W 090°43'0 0.0
2018-Feb-20 20:31N 29°35' W 090°43'0 0.0
2018-Feb-20 20:01N 29°35' W 090°43'0 0.0
2018-Feb-20 19:31N 29°35' W 090°43'1 1.8
2018-Feb-20 19:01N 29°34' W 090°43'2 3.4
2018-Feb-20 18:31N 29°32' W 090°42'4 8.7
2018-Feb-20 18:00N 29°28' W 090°43'4 0.2
2018-Feb-20 01:42N 29°25' W 090°44'1 5.5
2018-Feb-20 01:26N 29°26' W 090°43'2 5.5
2018-Feb-20 01:00N 29°28' W 090°43'3 5.4
2018-Feb-20 00:30N 29°31' W 090°42'2 4.8
2018-Feb-20 00:00N 29°33' W 090°42'0 0.3
2018-Feb-19 23:30N 29°34' W 090°42'0 0.0
2018-Feb-19 23:00N 29°34' W 090°42'0 0.0
2018-Feb-19 22:30N 29°34' W 090°42'0 0.1
2018-Feb-19 22:00N 29°34' W 090°42'0 0.1
2018-Feb-19 21:30N 29°34' W 090°42'0 0.2
2018-Feb-19 21:00N 29°34' W 090°42'0 0.0
2018-Feb-19 20:30N 29°34' W 090°42'1 3.0
2018-Feb-19 20:00N 29°35' W 090°43'0 0.0
2018-Feb-19 19:30N 29°35' W 090°43'0 0.0
2018-Feb-19 19:00N 29°35' W 090°43'2 4.2
2018-Feb-19 18:30N 29°33' W 090°42'0 1.0
2018-Feb-19 18:00N 29°32' W 090°42'0 0.0
2018-Feb-19 17:30N 29°32' W 090°42'0 0.0
2018-Feb-19 17:00N 29°32' W 090°42'0 0.1
2018-Feb-19 16:30N 29°32' W 090°42'0 0.1
2018-Feb-19 16:00N 29°32' W 090°42'0 0.0
2018-Feb-19 15:30N 29°32' W 090°42'0 0.0
2018-Feb-19 15:00N 29°32' W 090°42'0 0.0
2018-Feb-19 14:30N 29°32' W 090°42'0 0.0
2018-Feb-19 14:00N 29°32' W 090°42'0 0.0
2018-Feb-19 13:30N 29°32' W 090°42'0 0.0
2018-Feb-19 13:00N 29°32' W 090°42'0 0.0
2018-Feb-19 12:30N 29°32' W 090°42'0 0.0
2018-Feb-19 12:00N 29°32' W 090°42'0 0.0
2018-Feb-19 11:30N 29°32' W 090°42'0 0.0
2018-Feb-19 11:00N 29°32' W 090°42'0 0.0
2018-Feb-19 10:30N 29°32' W 090°42'1 1.6
2018-Feb-19 10:00N 29°33' W 090°42'1 2.3
2018-Feb-19 09:30N 29°34' W 090°43'1 2.2
2018-Feb-19 09:00N 29°34' W 090°44'4 7.3
2018-Feb-19 08:30N 29°32' W 090°48'  
Track history (hours):
 
Tides and Currents Weather Stations Pressure Air Temp Water Temp Dewpoint Dewpoint Depression Visibility Wind Speed Wind Dir Waves Ship Positions

MiSS Niz

Owner: Marquette Transportation Company Offshore LLC, Jefferson, LA. More information available from US FCC via Universal Licensing System and Coast Guard Vessel Documentation Center.

Last reported at 2018-Feb-22 02:58 UTC. Time now 2018-Feb-23 16:34 UTC.
Position N 29°34' W 090°33'.

Length 22 m; draft 2.5 m.

Type: Tug. MMSI: 367430850.

Date/timePositionNaut miles runAvg speedWind from/ knotsBaromVisibWave heightAir tempDewpointWater temp
2018-Feb-22 02:58N 29°34' W 090°33'3 7.4
2018-Feb-22 02:31N 29°35' W 090°37'4 8.2
2018-Feb-22 02:00N 29°37' W 090°41'3 5.3
2018-Feb-22 01:31N 29°34' W 090°43'4 7.8
2018-Feb-22 01:00N 29°30' W 090°43'8 0.9
2018-Feb-21 16:36N 29°23' W 090°44'1 3.2
2018-Feb-21 16:24N 29°23' W 090°44'1 3.6
2018-Feb-21 16:00N 29°25' W 090°44'2 4.5
2018-Feb-21 15:30N 29°27' W 090°43'2 4.8
2018-Feb-21 15:01N 29°29' W 090°43'2 4.8
2018-Feb-21 14:31N 29°32' W 090°42'1 1.2
2018-Feb-21 14:00N 29°32' W 090°42'0 0.1
2018-Feb-21 13:31N 29°32' W 090°42'0 0.0
2018-Feb-21 13:01N 29°32' W 090°42'0 0.0
2018-Feb-21 12:31N 29°32' W 090°42'0 0.0
2018-Feb-21 12:01N 29°32' W 090°42'0 0.0
2018-Feb-21 11:31N 29°32' W 090°42'0 0.0
2018-Feb-21 11:01N 29°32' W 090°42'0 0.0
2018-Feb-21 10:31N 29°32' W 090°42'0 0.0
2018-Feb-21 10:01N 29°32' W 090°42'0 0.0
2018-Feb-21 09:31N 29°32' W 090°42'0 0.0
2018-Feb-21 09:01N 29°32' W 090°42'0 0.0
2018-Feb-21 08:31N 29°32' W 090°42'0 0.0
2018-Feb-21 08:01N 29°32' W 090°42'0 0.0
2018-Feb-21 07:30N 29°32' W 090°42'0 0.0
2018-Feb-21 07:00N 29°32' W 090°42'0 0.0
2018-Feb-21 06:31N 29°32' W 090°42'0 0.0
2018-Feb-21 06:00N 29°32' W 090°42'0 0.0
2018-Feb-21 05:31N 29°32' W 090°42'0 0.0
2018-Feb-21 05:01N 29°32' W 090°42'0 0.0
2018-Feb-21 04:31N 29°32' W 090°42'0 0.0
2018-Feb-21 04:01N 29°32' W 090°42'0 0.0
2018-Feb-21 03:31N 29°32' W 090°42'1 2.4
2018-Feb-21 03:01N 29°34' W 090°43'1 2.8
2018-Feb-21 02:30N 29°35' W 090°43'0 0.0
2018-Feb-21 02:01N 29°35' W 090°43'0 0.0
2018-Feb-21 01:31N 29°35' W 090°43'0 0.0
2018-Feb-21 01:01N 29°35' W 090°43'0 0.0
2018-Feb-21 00:31N 29°35' W 090°43'0 0.0
2018-Feb-21 00:01N 29°35' W 090°43'0 0.0
2018-Feb-20 23:30N 29°35' W 090°43'0 0.0
2018-Feb-20 23:00N 29°35' W 090°43'0 0.0
2018-Feb-20 22:30N 29°35' W 090°43'0 0.0
2018-Feb-20 22:01N 29°35' W 090°43'0 0.0
2018-Feb-20 21:31N 29°35' W 090°43'0 0.0
2018-Feb-20 21:01N 29°35' W 090°43'0 0.0
2018-Feb-20 20:31N 29°35' W 090°43'0 0.0
2018-Feb-20 20:01N 29°35' W 090°43'0 0.0
2018-Feb-20 19:31N 29°35' W 090°43'1 1.8
2018-Feb-20 19:01N 29°34' W 090°43'2 3.4
2018-Feb-20 18:31N 29°32' W 090°42'4 8.7
2018-Feb-20 18:00N 29°28' W 090°43'4 0.2
2018-Feb-20 01:42N 29°25' W 090°44'1 5.5
2018-Feb-20 01:26N 29°26' W 090°43'2 5.5
2018-Feb-20 01:00N 29°28' W 090°43'3 5.4
2018-Feb-20 00:30N 29°31' W 090°42'2 4.8
2018-Feb-20 00:00N 29°33' W 090°42'0 0.3
2018-Feb-19 23:30N 29°34' W 090°42'0 0.0
2018-Feb-19 23:00N 29°34' W 090°42'0 0.0
2018-Feb-19 22:30N 29°34' W 090°42'0 0.1
2018-Feb-19 22:00N 29°34' W 090°42'0 0.1
2018-Feb-19 21:30N 29°34' W 090°42'0 0.2
2018-Feb-19 21:00N 29°34' W 090°42'0 0.0
2018-Feb-19 20:30N 29°34' W 090°42'1 3.0
2018-Feb-19 20:00N 29°35' W 090°43'0 0.0
2018-Feb-19 19:30N 29°35' W 090°43'0 0.0
2018-Feb-19 19:00N 29°35' W 090°43'2 4.2
2018-Feb-19 18:30N 29°33' W 090°42'0 1.0
2018-Feb-19 18:00N 29°32' W 090°42'0 0.0
2018-Feb-19 17:30N 29°32' W 090°42'0 0.0
2018-Feb-19 17:00N 29°32' W 090°42'0 0.1
2018-Feb-19 16:30N 29°32' W 090°42'0 0.1
2018-Feb-19 16:00N 29°32' W 090°42'0 0.0
2018-Feb-19 15:30N 29°32' W 090°42'0 0.0
2018-Feb-19 15:00N 29°32' W 090°42'0 0.0
2018-Feb-19 14:30N 29°32' W 090°42'0 0.0
2018-Feb-19 14:00N 29°32' W 090°42'0 0.0
2018-Feb-19 13:30N 29°32' W 090°42'0 0.0
2018-Feb-19 13:00N 29°32' W 090°42'0 0.0
2018-Feb-19 12:30N 29°32' W 090°42'0 0.0
2018-Feb-19 12:00N 29°32' W 090°42'0 0.0
2018-Feb-19 11:30N 29°32' W 090°42'0 0.0
2018-Feb-19 11:00N 29°32' W 090°42'0 0.0
2018-Feb-19 10:30N 29°32' W 090°42'1 1.6
2018-Feb-19 10:00N 29°33' W 090°42'1 2.3
2018-Feb-19 09:30N 29°34' W 090°43'1 2.2
2018-Feb-19 09:00N 29°34' W 090°44'4 7.3
2018-Feb-19 08:30N 29°32' W 090°48'  

Dump ship's entire track history